createdAt,value
2018-06-17T00:01:48.698Z,12.60
2018-06-17T00:04:17.611Z,11.97
2018-06-17T00:06:46.583Z,12.60
2018-06-17T00:09:15.375Z,12.73
2018-06-17T00:11:44.170Z,12.40
2018-06-17T00:14:12.878Z,12.40
2018-06-17T00:16:41.850Z,12.70
2018-06-17T00:19:10.837Z,12.93
2018-06-17T00:21:39.979Z,12.27
2018-06-17T00:24:08.708Z,11.90
2018-06-17T00:26:37.477Z,12.33
2018-06-17T00:29:06.311Z,12.57
2018-06-17T00:31:35.003Z,12.37
2018-06-17T00:34:03.873Z,12.57
2018-06-17T00:36:33.010Z,12.30
2018-06-17T00:39:01.827Z,12.83
2018-06-17T00:41:31.503Z,12.53
2018-06-17T00:44:00.392Z,12.80
2018-06-17T00:46:29.407Z,12.43
2018-06-17T00:48:57.867Z,11.97
2018-06-17T00:51:26.933Z,12.40
2018-06-17T00:53:55.767Z,11.70
2018-06-17T00:56:24.606Z,12.57
2018-06-17T00:58:53.824Z,13.07
2018-06-17T01:01:22.701Z,12.93
2018-06-17T01:03:51.797Z,13.23
2018-06-17T01:06:20.587Z,13.33
2018-06-17T01:08:49.270Z,13.93
2018-06-17T01:11:18.176Z,12.50
2018-06-17T01:13:46.883Z,13.43
2018-06-17T01:16:15.739Z,13.20
2018-06-17T01:18:44.528Z,13.10
2018-06-17T01:21:13.403Z,12.77
2018-06-17T01:23:42.453Z,12.60
2018-06-17T01:26:11.309Z,12.53
2018-06-17T01:28:40.347Z,12.70
2018-06-17T01:31:09.194Z,12.10
2018-06-17T01:33:38.079Z,12.73
2018-06-17T01:36:06.805Z,11.87
2018-06-17T01:38:36.536Z,11.50
2018-06-17T01:41:05.516Z,12.03
2018-06-17T01:43:34.362Z,11.70
2018-06-17T01:46:03.253Z,12.60
2018-06-17T01:48:31.990Z,11.03
2018-06-17T01:51:00.729Z,12.30
2018-06-17T01:53:29.619Z,11.30
2018-06-17T01:55:58.511Z,12.37
2018-06-17T01:58:27.324Z,12.37
2018-06-17T02:00:56.088Z,13.03
2018-06-17T02:03:30.092Z,13.07
2018-06-17T02:06:04.134Z,12.13
2018-06-17T02:08:38.530Z,12.13
2018-06-17T02:11:12.759Z,12.47
2018-06-17T02:13:41.560Z,12.47
2018-06-17T02:16:10.352Z,12.17
2018-06-17T02:18:39.244Z,12.20
2018-06-17T02:21:08.037Z,12.87
2018-06-17T02:23:37.744Z,12.83
2018-06-17T02:26:06.613Z,12.10
2018-06-17T02:28:35.574Z,12.87
2018-06-17T02:31:04.576Z,13.03
2018-06-17T02:33:33.519Z,12.50
2018-06-17T02:36:02.405Z,13.00
2018-06-17T02:38:31.260Z,12.33
2018-06-17T02:41:00.171Z,11.93
2018-06-17T02:43:28.811Z,12.50
2018-06-17T02:46:03.062Z,12.63
2018-06-17T02:48:37.267Z,12.40
2018-06-17T02:51:11.439Z,12.40
2018-06-17T02:53:45.710Z,12.67
2018-06-17T02:56:14.542Z,11.83
2018-06-17T02:58:43.647Z,12.23
2018-06-17T03:01:12.312Z,12.50
2018-06-17T03:03:41.075Z,12.27
2018-06-17T03:06:09.965Z,12.10
2018-06-17T03:08:38.753Z,12.37
2018-06-17T03:11:07.484Z,12.00
2018-06-17T03:13:36.944Z,12.07
2018-06-17T03:16:05.787Z,12.47
2018-06-17T03:18:34.725Z,12.80
2018-06-17T03:21:03.820Z,12.53
2018-06-17T03:23:32.611Z,11.53
2018-06-17T03:26:06.825Z,12.33
2018-06-17T03:28:41.046Z,12.53
2018-06-17T03:31:15.359Z,13.20
2018-06-17T03:33:52.548Z,12.07
2018-06-17T03:36:21.436Z,12.13
2018-06-17T03:38:50.433Z,12.10
2018-06-17T03:41:19.393Z,12.63
2018-06-17T03:43:48.076Z,11.43
2018-06-17T03:46:16.901Z,11.83
2018-06-17T03:48:45.764Z,11.70
2018-06-17T03:51:14.448Z,11.50
2018-06-17T03:53:43.163Z,11.40
2018-06-17T03:56:12.258Z,11.70
2018-06-17T03:58:40.931Z,12.23
2018-06-17T04:01:09.708Z,11.57
2018-06-17T04:03:38.391Z,11.50
2018-06-17T04:06:07.210Z,11.73
2018-06-17T04:08:36.133Z,11.97
2018-06-17T04:11:05.026Z,11.40
2018-06-17T04:13:33.816Z,11.27
2018-06-17T04:16:02.813Z,11.77
2018-06-17T04:18:31.507Z,11.47
2018-06-17T04:21:00.388Z,11.90
2018-06-17T04:23:29.242Z,10.93
2018-06-17T04:25:58.370Z,11.50
2018-06-17T04:28:27.232Z,11.27
2018-06-17T04:30:56.224Z,11.77
2018-06-17T04:33:25.012Z,11.57
2018-06-17T04:35:54.576Z,11.27
2018-06-17T04:38:23.331Z,11.60
2018-06-17T04:40:52.297Z,11.60
2018-06-17T04:43:21.322Z,10.93
2018-06-17T04:45:49.992Z,11.63
2018-06-17T04:48:18.906Z,10.80
2018-06-17T04:50:47.768Z,11.57
2018-06-17T04:53:16.685Z,11.33
2018-06-17T04:55:45.746Z,11.47
2018-06-17T04:58:14.539Z,11.67
2018-06-17T05:00:43.325Z,10.83
2018-06-17T05:03:12.254Z,11.17
2018-06-17T05:05:41.006Z,11.03
2018-06-17T05:08:09.746Z,11.00
2018-06-17T05:10:38.584Z,10.80
2018-06-17T05:13:07.721Z,11.07
2018-06-17T05:15:36.367Z,11.83
2018-06-17T05:18:05.360Z,10.53
2018-06-17T05:20:34.176Z,10.87
2018-06-17T05:23:03.040Z,11.10
2018-06-17T05:25:31.700Z,11.63
2018-06-17T05:28:00.621Z,11.30
2018-06-17T05:30:29.451Z,10.77
2018-06-17T05:32:58.195Z,10.27
2018-06-17T05:35:26.929Z,11.23
2018-06-17T05:37:55.534Z,11.03
2018-06-17T05:40:24.209Z,10.97
2018-06-17T05:42:52.906Z,10.73
2018-06-17T05:45:21.728Z,10.53
2018-06-17T05:47:50.621Z,10.37
2018-06-17T05:50:19.557Z,10.97
2018-06-17T05:52:48.402Z,10.60
2018-06-17T05:55:17.157Z,10.10
2018-06-17T05:57:45.877Z,9.87
2018-06-17T06:00:14.664Z,10.37
2018-06-17T06:02:43.455Z,10.17
2018-06-17T06:05:12.244Z,9.90
2018-06-17T06:07:41.300Z,10.70
2018-06-17T06:10:10.070Z,10.07
2018-06-17T06:12:38.944Z,10.40
2018-06-17T06:15:07.684Z,9.57
2018-06-17T06:17:36.572Z,10.30
2018-06-17T06:20:07.066Z,9.67
2018-06-17T06:22:35.826Z,9.57
2018-06-17T06:25:04.708Z,9.97
2018-06-17T06:27:33.781Z,9.60
2018-06-17T06:30:02.496Z,9.83
2018-06-17T06:32:31.535Z,9.37
2018-06-17T06:35:00.396Z,8.87
2018-06-17T06:37:29.329Z,8.43
2018-06-17T06:39:59.074Z,8.87
2018-06-17T06:42:28.347Z,9.87
2018-06-17T06:44:57.201Z,8.60
2018-06-17T06:47:26.057Z,8.47
2018-06-17T06:49:55.245Z,9.27
2018-06-17T06:52:24.144Z,9.13
2018-06-17T06:54:53.074Z,8.27
2018-06-17T06:57:22.448Z,9.70
2018-06-17T06:59:51.232Z,8.67
2018-06-17T07:02:31.281Z,8.33
2018-06-17T07:05:11.334Z,8.80
2018-06-17T07:07:51.422Z,8.47
2018-06-17T07:10:27.421Z,8.63
2018-06-17T07:12:56.619Z,8.70
2018-06-17T07:15:37.731Z,9.03
2018-06-17T07:18:17.771Z,8.07
2018-06-17T07:20:46.896Z,7.83
2018-06-17T07:23:15.647Z,7.60
2018-06-17T07:26:55.732Z,8.80
2018-06-17T07:29:37.133Z,8.10
2018-06-17T07:32:06.052Z,7.60
2018-06-17T07:34:35.089Z,7.50
2018-06-17T07:37:04.440Z,7.50
2018-06-17T07:41:42.896Z,7.60
2018-06-17T07:44:11.954Z,7.30
2018-06-17T07:46:40.715Z,7.27
2018-06-17T07:49:46.673Z,7.10
2018-06-17T07:52:27.884Z,8.00
2018-06-17T07:54:57.071Z,6.80
2018-06-17T07:57:27.825Z,7.20
2018-06-17T07:59:57.661Z,6.87
2018-06-17T08:02:27.521Z,6.70
2018-06-17T08:04:58.082Z,6.63
2018-06-17T08:07:27.820Z,6.03
2018-06-17T08:09:57.577Z,6.23
2018-06-17T08:12:27.498Z,6.23
2018-06-17T08:14:57.456Z,6.20
2018-06-17T08:17:27.647Z,7.20
2018-06-17T08:19:57.656Z,6.43
2018-06-17T08:22:27.512Z,7.00
2018-06-17T08:24:56.528Z,6.93
2018-06-17T08:27:25.293Z,6.20
2018-06-17T08:29:54.228Z,6.03
2018-06-17T08:32:23.653Z,6.13
2018-06-17T08:34:52.617Z,6.50
2018-06-17T08:37:21.935Z,6.27
2018-06-17T08:39:50.822Z,6.47
2018-06-17T08:42:19.619Z,6.03
2018-06-17T08:44:48.401Z,6.07
2018-06-17T08:47:17.785Z,6.60
2018-06-17T08:49:46.511Z,6.37
2018-06-17T08:52:15.387Z,5.63
2018-06-17T08:54:44.292Z,5.10
2018-06-17T08:57:12.959Z,5.37
2018-06-17T08:59:41.848Z,5.20
2018-06-17T09:02:10.633Z,5.10
2018-06-17T09:04:39.345Z,5.23
2018-06-17T09:07:08.128Z,5.20
2018-06-17T09:09:36.948Z,4.93
2018-06-17T09:12:06.011Z,4.60
2018-06-17T09:14:34.977Z,4.47
2018-06-17T09:17:03.755Z,4.50
2018-06-17T09:19:32.372Z,5.22
2018-06-17T09:22:01.153Z,4.90
2018-06-17T09:24:29.952Z,5.40
2018-06-17T09:26:58.604Z,4.85
2018-06-17T09:29:27.308Z,4.80
2018-06-17T09:31:56.131Z,4.40
2018-06-17T09:34:24.929Z,4.53
2018-06-17T09:36:53.870Z,4.80
2018-06-17T09:39:22.870Z,5.28
2018-06-17T09:41:51.758Z,4.87
2018-06-17T09:44:20.535Z,4.80
2018-06-17T09:46:49.376Z,4.67
2018-06-17T09:49:18.173Z,4.40
2018-06-17T09:51:46.796Z,4.80
2018-06-17T09:54:15.700Z,4.40
2018-06-17T09:56:44.702Z,4.37
2018-06-17T09:59:13.484Z,4.70
2018-06-17T10:01:42.114Z,4.73
2018-06-17T10:04:10.875Z,4.60
2018-06-17T10:06:39.753Z,4.85
2018-06-17T10:09:09.848Z,5.00
2018-06-17T10:11:38.532Z,5.30
2018-06-17T10:14:07.271Z,5.00
2018-06-17T10:16:36.166Z,5.45
2018-06-17T10:19:05.180Z,4.90
2018-06-17T10:21:34.145Z,5.00
2018-06-17T10:24:03.213Z,5.07
2018-06-17T10:26:32.212Z,4.90
2018-06-17T10:29:01.033Z,5.07
2018-06-17T10:31:30.114Z,5.25
2018-06-17T10:33:58.812Z,5.30
2018-06-17T10:36:27.668Z,5.90
2018-06-17T10:38:56.417Z,5.67
2018-06-17T10:41:25.159Z,5.55
2018-06-17T10:43:54.331Z,5.46
2018-06-17T10:46:23.053Z,4.80
2018-06-17T10:48:51.912Z,5.42
2018-06-17T10:51:20.809Z,5.37
2018-06-17T10:53:49.561Z,5.55
2018-06-17T10:56:18.453Z,5.20
2018-06-17T10:58:47.273Z,5.27
2018-06-17T11:01:16.107Z,5.50
2018-06-17T11:03:45.370Z,5.62
2018-06-17T11:06:14.298Z,5.45
2018-06-17T11:08:43.220Z,5.22
2018-06-17T11:11:12.179Z,5.00
2018-06-17T11:13:41.052Z,5.20
2018-06-17T11:16:10.031Z,4.30
2018-06-17T11:18:39.059Z,4.55
2018-06-17T11:21:08.222Z,4.67
2018-06-17T11:23:37.112Z,4.80
2018-06-17T11:26:05.832Z,4.65
2018-06-17T11:28:34.527Z,5.12
2018-06-17T11:31:03.408Z,5.03
2018-06-17T11:33:32.371Z,4.70
2018-06-17T11:36:01.489Z,4.53
2018-06-17T11:38:30.677Z,4.42
2018-06-17T11:40:59.322Z,5.00
2018-06-17T11:43:28.255Z,5.30
2018-06-17T11:45:57.134Z,4.33
2018-06-17T11:48:25.876Z,4.40
2018-06-17T11:50:54.837Z,4.37
2018-06-17T11:53:25.518Z,4.40
2018-06-17T11:55:54.851Z,4.30
2018-06-17T11:58:23.844Z,5.03
2018-06-17T12:00:52.737Z,4.92
2018-06-17T12:03:21.478Z,5.20
2018-06-17T12:05:50.517Z,4.92
2018-06-17T12:08:19.329Z,5.33
2018-06-17T12:10:48.330Z,5.15
2018-06-17T12:13:17.023Z,5.20
2018-06-17T12:15:45.980Z,5.47
2018-06-17T12:18:14.953Z,5.42
2018-06-17T12:20:43.791Z,5.62
2018-06-17T12:23:12.589Z,5.15
2018-06-17T12:25:41.410Z,5.80
2018-06-17T12:28:10.233Z,5.00
2018-06-17T12:30:39.270Z,5.20
2018-06-17T12:33:07.672Z,4.92
2018-06-17T12:35:36.663Z,5.22
2018-06-17T12:38:05.389Z,4.92
2018-06-17T12:40:34.284Z,5.33
2018-06-17T12:43:03.211Z,5.25
2018-06-17T12:45:31.971Z,4.97
2018-06-17T12:48:00.850Z,5.33
2018-06-17T12:50:29.878Z,5.22
2018-06-17T12:52:58.615Z,5.00
2018-06-17T12:55:27.438Z,5.20
2018-06-17T12:57:58.398Z,5.30
2018-06-17T13:00:27.159Z,5.33
2018-06-17T13:02:56.280Z,5.10
2018-06-17T13:05:25.255Z,5.05
2018-06-17T13:07:53.989Z,4.90
2018-06-17T13:10:25.511Z,4.87
2018-06-17T13:12:54.385Z,5.30
2018-06-17T13:15:23.237Z,5.22
2018-06-17T13:17:52.255Z,5.33
2018-06-17T13:20:21.104Z,5.50
2018-06-17T13:22:50.125Z,5.92
2018-06-17T13:25:19.049Z,5.33
2018-06-17T13:27:47.855Z,5.75
2018-06-17T13:30:16.609Z,5.72
2018-06-17T13:32:45.340Z,5.80
2018-06-17T13:35:14.061Z,5.72
2018-06-17T13:37:42.821Z,5.55
2018-06-17T13:40:12.565Z,6.00
2018-06-17T13:42:41.355Z,5.53
2018-06-17T13:45:10.171Z,6.33
2018-06-17T13:47:38.799Z,5.60
2018-06-17T13:50:07.444Z,4.87
2018-06-17T13:52:36.107Z,5.62
2018-06-17T13:55:04.974Z,5.25
2018-06-17T13:57:33.802Z,4.80
2018-06-17T14:00:02.894Z,4.60
2018-06-17T14:02:32.100Z,4.90
2018-06-17T14:05:00.997Z,4.80
2018-06-17T14:07:29.979Z,4.70
2018-06-17T14:09:58.867Z,4.78
2018-06-17T14:12:27.873Z,4.42
2018-06-17T14:14:56.956Z,4.75
2018-06-17T14:17:25.849Z,4.10
2018-06-17T14:19:54.995Z,3.87
2018-06-17T14:22:23.520Z,3.20
2018-06-17T14:24:52.359Z,2.87
2018-06-17T14:27:21.417Z,3.20
2018-06-17T14:29:50.406Z,3.45
2018-06-17T14:32:19.275Z,3.50
2018-06-17T14:34:48.122Z,2.97
2018-06-17T14:37:17.091Z,3.30
2018-06-17T14:39:45.867Z,2.87
2018-06-17T14:42:20.088Z,3.53
2018-06-17T14:44:54.137Z,3.90
2018-06-17T14:48:27.016Z,4.40
2018-06-17T14:51:01.746Z,4.40
2018-06-17T14:53:30.388Z,4.50
2018-06-17T14:55:59.508Z,4.17
2018-06-17T14:58:28.218Z,4.30
2018-06-17T15:00:57.106Z,4.07
2018-06-17T15:03:26.107Z,3.60
2018-06-17T15:05:55.175Z,3.43
2018-06-17T15:08:25.300Z,3.53
2018-06-17T15:10:54.223Z,3.70
2018-06-17T15:13:23.174Z,3.00
2018-06-17T15:15:52.534Z,3.27
2018-06-17T15:18:21.155Z,3.47
2018-06-17T15:20:50.709Z,3.23
2018-06-17T15:23:19.460Z,3.50
2018-06-17T15:25:48.657Z,3.00
2018-06-17T15:28:17.683Z,2.90
2018-06-17T15:30:46.551Z,3.00
2018-06-17T15:33:20.755Z,2.87
2018-06-17T15:35:54.738Z,3.03
2018-06-17T15:38:29.096Z,2.77
2018-06-17T15:41:03.302Z,2.70
2018-06-17T15:43:31.959Z,2.50
2018-06-17T15:46:00.719Z,2.73
2018-06-17T15:48:29.596Z,2.80
2018-06-17T15:50:57.963Z,2.60
2018-06-17T15:53:26.774Z,2.97
2018-06-17T15:55:55.530Z,2.90
2018-06-17T15:58:24.240Z,3.20
2018-06-17T16:00:52.962Z,3.13
2018-06-17T16:03:21.781Z,2.70
2018-06-17T16:05:50.451Z,3.20
2018-06-17T16:08:19.090Z,3.30
2018-06-17T16:10:47.885Z,2.80
2018-06-17T16:13:21.900Z,2.40
2018-06-17T16:15:56.201Z,3.30
2018-06-17T16:18:30.124Z,3.13
2018-06-17T16:21:00.754Z,3.37
2018-06-17T16:23:30.720Z,3.00
2018-06-17T16:26:00.037Z,3.10
2018-06-17T16:28:29.240Z,3.43
2018-06-17T16:30:58.224Z,3.50
2018-06-17T16:33:27.013Z,3.57
2018-06-17T16:35:55.933Z,4.00
2018-06-17T16:38:24.722Z,5.33
2018-06-17T16:40:53.789Z,4.43
2018-06-17T16:43:22.580Z,4.57
2018-06-17T16:45:51.497Z,4.20
2018-06-17T16:48:20.566Z,4.10
2018-06-17T16:50:54.680Z,4.17
2018-06-17T16:53:28.961Z,4.17
2018-06-17T16:56:03.003Z,3.73
2018-06-17T16:58:37.352Z,3.90
2018-06-17T17:01:06.270Z,4.33
2018-06-17T17:03:35.108Z,3.83
2018-06-17T17:06:04.131Z,3.17
2018-06-17T17:08:32.818Z,2.87
2018-06-17T17:11:01.992Z,3.20
2018-06-17T17:13:30.825Z,3.30
2018-06-17T17:15:59.496Z,2.80
2018-06-17T17:18:28.175Z,2.97
2018-06-17T17:20:56.859Z,3.30
2018-06-17T17:23:25.676Z,3.20
2018-06-17T17:25:54.741Z,3.20
2018-06-17T17:28:23.544Z,3.20
2018-06-17T17:30:52.400Z,3.00
2018-06-17T17:33:26.493Z,2.97
2018-06-17T17:36:00.778Z,3.00
2018-06-17T17:38:33.958Z,2.97
2018-06-17T17:41:04.868Z,2.80
2018-06-17T17:43:34.164Z,2.73
2018-06-17T17:46:08.173Z,2.80
2018-06-17T17:48:36.958Z,2.40
2018-06-17T17:51:05.855Z,2.50
2018-06-17T17:53:34.776Z,2.60
2018-06-17T17:56:03.656Z,2.43
2018-06-17T17:58:32.533Z,2.90
2018-06-17T18:01:01.937Z,3.17
2018-06-17T18:03:30.795Z,3.43
2018-06-17T18:06:00.036Z,3.40
2018-06-17T18:08:28.848Z,3.80
2018-06-17T18:10:57.953Z,3.83
2018-06-17T18:13:28.212Z,3.60
2018-06-17T18:15:57.167Z,3.80
2018-06-17T18:18:26.666Z,4.63
2018-06-17T18:20:55.725Z,4.23
2018-06-17T18:23:24.848Z,3.87
2018-06-17T18:25:59.462Z,4.03
2018-06-17T18:28:34.378Z,4.30
2018-06-17T18:31:04.522Z,4.60
2018-06-17T18:33:38.920Z,4.33
2018-06-17T18:36:12.385Z,4.60
2018-06-17T18:38:43.154Z,4.63
2018-06-17T18:41:13.638Z,4.67
2018-06-17T18:43:43.525Z,5.10
2018-06-17T18:46:13.143Z,4.80
2018-06-17T18:48:42.485Z,4.63
2018-06-17T18:51:12.083Z,5.20
2018-06-17T18:53:41.745Z,4.63
2018-06-17T18:56:11.375Z,4.80
2018-06-17T18:58:40.711Z,4.47
2018-06-17T19:01:10.816Z,4.40
2018-06-17T19:03:39.890Z,4.47
2018-06-17T19:06:09.047Z,4.20
2018-06-17T19:08:43.686Z,4.73
2018-06-17T19:11:18.297Z,4.30
2018-06-17T19:13:52.514Z,4.57
2018-06-17T19:16:27.347Z,4.40
2018-06-17T19:18:56.826Z,4.73
2018-06-17T19:21:26.413Z,4.90
2018-06-17T19:23:55.964Z,4.83
2018-06-17T19:26:25.728Z,4.37
2018-06-17T19:28:55.086Z,4.77
2018-06-17T19:31:24.898Z,4.70
2018-06-17T19:33:54.771Z,4.93
2018-06-17T19:36:23.730Z,5.57
2018-06-17T19:38:53.731Z,5.10
2018-06-17T19:41:23.080Z,5.90
2018-06-17T19:43:51.673Z,5.70
2018-06-17T19:46:21.535Z,5.77
2018-06-17T19:48:51.121Z,5.50
2018-06-17T19:51:25.284Z,5.63
2018-06-17T19:54:00.066Z,5.60
2018-06-17T19:56:34.489Z,5.60
2018-06-17T19:59:08.805Z,5.80
2018-06-17T20:01:37.947Z,5.47
2018-06-17T20:04:07.495Z,6.12
2018-06-17T20:06:37.013Z,6.23
2018-06-17T20:09:08.995Z,5.97
2018-06-17T20:11:38.391Z,5.57
2018-06-17T20:14:07.785Z,5.73
2018-06-17T20:16:37.497Z,5.97
2018-06-17T20:19:07.242Z,6.15
2018-06-17T20:21:35.871Z,5.73
2018-06-17T20:24:04.714Z,6.10
2018-06-17T20:26:33.592Z,5.63
2018-06-17T20:29:02.875Z,5.90
2018-06-17T20:31:32.045Z,6.03
2018-06-17T20:34:06.205Z,5.90
2018-06-17T20:36:40.308Z,6.60
2018-06-17T20:39:15.010Z,6.30
2018-06-17T20:41:49.244Z,6.10
2018-06-17T20:44:18.340Z,6.00
2018-06-17T20:46:47.001Z,6.10
2018-06-17T20:49:15.714Z,5.60
2018-06-17T20:51:44.478Z,5.83
2018-06-17T20:54:13.329Z,5.30
2018-06-17T20:56:42.429Z,5.23
2018-06-17T20:59:11.483Z,4.93
2018-06-17T21:01:40.209Z,5.20
2018-06-17T21:04:09.099Z,5.27
2018-06-17T21:06:37.951Z,5.57
2018-06-17T21:09:08.111Z,5.60
2018-06-17T21:11:37.190Z,5.30
2018-06-17T21:14:06.076Z,5.77
2018-06-17T21:16:34.860Z,5.47
2018-06-17T21:19:08.862Z,5.30
2018-06-17T21:21:42.903Z,5.97
2018-06-17T21:24:16.886Z,5.40
2018-06-17T21:26:51.201Z,5.67
2018-06-17T21:29:20.525Z,5.50
2018-06-17T21:31:49.396Z,5.80
2018-06-17T21:34:18.488Z,5.80
2018-06-17T21:36:47.480Z,6.00
2018-06-17T21:39:16.505Z,6.00
2018-06-17T21:41:45.451Z,6.03
2018-06-17T21:44:14.299Z,6.30
2018-06-17T21:46:43.356Z,6.70
2018-06-17T21:49:12.161Z,6.60
2018-06-17T21:51:41.180Z,6.27
2018-06-17T21:54:10.176Z,6.60
2018-06-17T21:56:39.003Z,6.70
2018-06-17T21:59:07.909Z,6.63
2018-06-17T22:01:36.959Z,7.00
2018-06-17T22:04:11.530Z,6.27
2018-06-17T22:06:40.261Z,6.23
2018-06-17T22:09:14.843Z,5.90
2018-06-17T22:11:48.966Z,6.23
2018-06-17T22:14:22.903Z,5.80
2018-06-17T22:16:56.849Z,5.90
2018-06-17T22:19:25.598Z,5.90
2018-06-17T22:21:54.670Z,5.90
2018-06-17T22:24:23.496Z,5.53
2018-06-17T22:26:52.182Z,5.90
2018-06-17T22:29:20.917Z,5.53
2018-06-17T22:31:49.813Z,5.80
2018-06-17T22:34:18.720Z,6.20
2018-06-17T22:36:47.711Z,5.70
2018-06-17T22:39:16.417Z,5.70
2018-06-17T22:41:45.353Z,5.30
2018-06-17T22:44:14.182Z,5.30
2018-06-17T22:46:43.177Z,4.80
2018-06-17T22:49:11.877Z,4.87
2018-06-17T22:51:40.569Z,4.60
2018-06-17T22:54:20.481Z,4.50
2018-06-17T22:56:54.729Z,4.30
2018-06-17T22:59:28.987Z,4.37
2018-06-17T23:02:03.346Z,4.10
2018-06-17T23:04:37.476Z,3.90
2018-06-17T23:07:11.505Z,3.83
2018-06-17T23:09:42.024Z,4.17
2018-06-17T23:12:10.882Z,3.83
2018-06-17T23:14:39.591Z,3.30
2018-06-17T23:17:08.244Z,3.90
2018-06-17T23:19:36.887Z,3.67
2018-06-17T23:22:05.990Z,3.57
2018-06-17T23:24:35.049Z,3.57
2018-06-17T23:27:04.025Z,6.10
2018-06-17T23:29:32.839Z,5.40
2018-06-17T23:32:01.762Z,5.60
2018-06-17T23:34:30.600Z,5.90
2018-06-17T23:36:59.485Z,5.73
2018-06-17T23:39:28.279Z,5.40
2018-06-17T23:41:57.098Z,6.10
2018-06-17T23:44:26.061Z,5.70
2018-06-17T23:47:00.629Z,5.57
2018-06-17T23:49:34.572Z,4.57
2018-06-17T23:52:08.657Z,4.77
2018-06-17T23:54:42.871Z,3.97
2018-06-17T23:57:11.836Z,4.53
2018-06-17T23:59:40.809Z,3.03
